EXM94 EGBJ-EGTK
Flight info
| Callsign | EXM94 |
|---|---|
| Flight time | N/A |
| Altitude | 9000 |
| Route | BADIM DCT CONKO DCT OX |
| Aircraft | DA42/L-SDFGRY/C |
Departure
| Time | 2026-04-30 14:26 |
|---|---|
| Airport | Gloucestershire Airport (EGBJ) |
Arrival
| Time | N/A |
|---|---|
| Airport | London Oxford Airport (EGTK) |
| Time | Latitude | Longitude | Altitude | Speed | Heading |
|---|---|---|---|---|---|
| 2026-04-30 14:07 | 51.88929 | -2.16384 | 88 ft | 0 kts | 352° |
| 2026-04-30 14:20 | 51.88932 | -2.16385 | 91 ft | 0 kts | 1° |
| 2026-04-30 14:20 | 51.88949 | -2.16392 | 88 ft | 8 kts | 317° |
| 2026-04-30 14:20 | 51.88890 | -2.16534 | 89 ft | 11 kts | 222° |
| 2026-04-30 14:21 | 51.88860 | -2.16653 | 89 ft | 13 kts | 264° |
| 2026-04-30 14:21 | 51.88876 | -2.16833 | 90 ft | 19 kts | 294° |
| 2026-04-30 14:21 | 51.89080 | -2.17213 | 91 ft | 27 kts | 340° |
| 2026-04-30 14:22 | 51.89230 | -2.17410 | 90 ft | 26 kts | 315° |
| 2026-04-30 14:22 | 51.89279 | -2.17488 | 91 ft | 0 kts | 317° |
| 2026-04-30 14:24 | 51.89355 | -2.17545 | 87 ft | 7 kts | 88° |
| 2026-04-30 14:24 | 51.89356 | -2.17511 | 87 ft | 0 kts | 82° |
| 2026-04-30 14:25 | 51.89369 | -2.17324 | 88 ft | 46 kts | 82° |
| 2026-04-30 14:25 | 51.89476 | -2.15795 | 468 ft | 77 kts | 95° |
| 2026-04-30 14:26 | 51.89525 | -2.13988 | 947 ft | 84 kts | 95° |
| 2026-04-30 14:26 | 51.89530 | -2.13063 | 1334 ft | 79 kts | 94° |
| 2026-04-30 14:26 | 51.89473 | -2.11335 | 1907 ft | 77 kts | 132° |
| 2026-04-30 14:27 | 51.88932 | -2.11176 | 2211 ft | 95 kts | 188° |
| 2026-04-30 14:27 | 51.88351 | -2.11791 | 2543 ft | 101 kts | 202° |
| 2026-04-30 14:27 | 51.87780 | -2.12458 | 2886 ft | 102 kts | 205° |
| 2026-04-30 14:28 | 51.86700 | -2.13978 | 3577 ft | 100 kts | 210° |
| 2026-04-30 14:28 | 51.86224 | -2.14815 | 3903 ft | 103 kts | 214° |
| 2026-04-30 14:28 | 51.85751 | -2.15651 | 4297 ft | 98 kts | 213° |
| 2026-04-30 14:28 | 51.85292 | -2.16444 | 4670 ft | 96 kts | 213° |
| 2026-04-30 14:29 | 51.84366 | -2.17948 | 5368 ft | 92 kts | 213° |
| 2026-04-30 14:29 | 51.83587 | -2.19271 | 5868 ft | 96 kts | 215° |
| 2026-04-30 14:30 | 51.82048 | -2.21926 | 6903 ft | 97 kts | 214° |
| 2026-04-30 14:31 | 51.81071 | -2.23432 | 7472 ft | 101 kts | 216° |
| 2026-04-30 14:31 | 51.80109 | -2.25059 | 8098 ft | 100 kts | 215° |
| 2026-04-30 14:31 | 51.79630 | -2.25875 | 8405 ft | 100 kts | 216° |
| 2026-04-30 14:32 | 51.78682 | -2.27528 | 8960 ft | 102 kts | 216° |
| 2026-04-30 14:32 | 51.78181 | -2.28387 | 9171 ft | 112 kts | 217° |
| 2026-04-30 14:32 | 51.77607 | -2.29387 | 9205 ft | 132 kts | 218° |
| 2026-04-30 14:33 | 51.76948 | -2.30538 | 9179 ft | 146 kts | 219° |
| 2026-04-30 14:33 | 51.75569 | -2.33004 | 9161 ft | 148 kts | 221° |
| 2026-04-30 14:33 | 51.74882 | -2.34246 | 9163 ft | 148 kts | 220° |
| 2026-04-30 14:34 | 51.74184 | -2.35484 | 9159 ft | 150 kts | 219° |
| 2026-04-30 14:34 | 51.73463 | -2.36698 | 9152 ft | 149 kts | 218° |
| 2026-04-30 14:34 | 51.72988 | -2.37496 | 9151 ft | 148 kts | 218° |
| 2026-04-30 14:34 | 51.72277 | -2.38692 | 9154 ft | 148 kts | 218° |
| 2026-04-30 14:35 | 51.70844 | -2.41083 | 9149 ft | 149 kts | 218° |
| 2026-04-30 14:35 | 51.70130 | -2.42287 | 9161 ft | 148 kts | 218° |
| 2026-04-30 14:35 | 51.69410 | -2.43485 | 9151 ft | 149 kts | 218° |
| 2026-04-30 14:36 | 51.68682 | -2.44663 | 9150 ft | 147 kts | 213° |
| 2026-04-30 14:36 | 51.67768 | -2.45125 | 9142 ft | 137 kts | 170° |
| 2026-04-30 14:36 | 51.66940 | -2.44440 | 9149 ft | 136 kts | 143° |
| 2026-04-30 14:36 | 51.66221 | -2.43435 | 9152 ft | 137 kts | 140° |
| 2026-04-30 14:37 | 51.65512 | -2.42402 | 9150 ft | 137 kts | 140° |
| 2026-04-30 14:37 | 51.64809 | -2.41370 | 9137 ft | 137 kts | 140° |
| 2026-04-30 14:37 | 51.64142 | -2.40284 | 9131 ft | 139 kts | 125° |
| 2026-04-30 14:37 | 51.63873 | -2.38772 | 9149 ft | 143 kts | 106° |
| 2026-04-30 14:38 | 51.63728 | -2.37193 | 9150 ft | 143 kts | 105° |
| 2026-04-30 14:38 | 51.63587 | -2.35612 | 9150 ft | 143 kts | 105° |
| 2026-04-30 14:38 | 51.63445 | -2.34025 | 9148 ft | 143 kts | 105° |
| 2026-04-30 14:38 | 51.63302 | -2.32441 | 9151 ft | 143 kts | 105° |
| 2026-04-30 14:39 | 51.63158 | -2.30847 | 9159 ft | 144 kts | 105° |
| 2026-04-30 14:39 | 51.63017 | -2.29248 | 9153 ft | 144 kts | 105° |
| 2026-04-30 14:39 | 51.62885 | -2.27664 | 9159 ft | 142 kts | 105° |
| 2026-04-30 14:40 | 51.62633 | -2.24485 | 9159 ft | 144 kts | 103° |
| 2026-04-30 14:40 | 51.62522 | -2.22876 | 9158 ft | 145 kts | 103° |
| 2026-04-30 14:40 | 51.62416 | -2.21290 | 9158 ft | 144 kts | 103° |
| 2026-04-30 14:40 | 51.62312 | -2.19688 | 9157 ft | 144 kts | 103° |
| 2026-04-30 14:41 | 51.62213 | -2.18088 | 9158 ft | 143 kts | 103° |
| 2026-04-30 14:41 | 51.62112 | -2.16496 | 9159 ft | 143 kts | 103° |
| 2026-04-30 14:41 | 51.62010 | -2.14905 | 9158 ft | 143 kts | 103° |
| 2026-04-30 14:41 | 51.61903 | -2.13319 | 9157 ft | 142 kts | 103° |
| 2026-04-30 14:42 | 51.61802 | -2.11733 | 9167 ft | 143 kts | 103° |
| 2026-04-30 14:42 | 51.61705 | -2.10142 | 9165 ft | 143 kts | 103° |
| 2026-04-30 14:42 | 51.61608 | -2.08555 | 9166 ft | 143 kts | 103° |
| 2026-04-30 14:42 | 51.61506 | -2.06965 | 9167 ft | 143 kts | 103° |
| 2026-04-30 14:43 | 51.61502 | -2.05351 | 9155 ft | 151 kts | 84° |
| 2026-04-30 14:43 | 51.61869 | -2.03756 | 9162 ft | 153 kts | 75° |
| 2026-04-30 14:43 | 51.62306 | -2.02191 | 9162 ft | 154 kts | 74° |
| 2026-04-30 14:43 | 51.62791 | -2.00653 | 9162 ft | 154 kts | 71° |
| 2026-04-30 14:44 | 51.63287 | -1.99118 | 9164 ft | 155 kts | 71° |
| 2026-04-30 14:44 | 51.63781 | -1.97574 | 9164 ft | 155 kts | 71° |
| 2026-04-30 14:44 | 51.64275 | -1.96029 | 9164 ft | 155 kts | 71° |
| 2026-04-30 14:44 | 51.64766 | -1.94503 | 9163 ft | 155 kts | 71° |
| 2026-04-30 14:45 | 51.65268 | -1.92961 | 9160 ft | 156 kts | 71° |
| 2026-04-30 14:45 | 51.65757 | -1.91394 | 9159 ft | 157 kts | 73° |
| 2026-04-30 14:45 | 51.66223 | -1.89807 | 9160 ft | 157 kts | 73° |
| 2026-04-30 14:45 | 51.66690 | -1.88218 | 9161 ft | 156 kts | 73° |
| 2026-04-30 14:46 | 51.67156 | -1.86637 | 9162 ft | 157 kts | 73° |
| 2026-04-30 14:46 | 51.67623 | -1.85052 | 9161 ft | 156 kts | 73° |
| 2026-04-30 14:46 | 51.68086 | -1.83462 | 9160 ft | 157 kts | 73° |
| 2026-04-30 14:46 | 51.68551 | -1.81873 | 9161 ft | 157 kts | 73° |
| 2026-04-30 14:47 | 51.69021 | -1.80285 | 9163 ft | 157 kts | 73° |
| 2026-04-30 14:47 | 51.69488 | -1.78692 | 9106 ft | 158 kts | 73° |
| 2026-04-30 14:47 | 51.69949 | -1.77099 | 8900 ft | 156 kts | 73° |
| 2026-04-30 14:47 | 51.70409 | -1.75527 | 8695 ft | 154 kts | 73° |
| 2026-04-30 14:48 | 51.70868 | -1.73977 | 8496 ft | 153 kts | 73° |
| 2026-04-30 14:48 | 51.71326 | -1.72428 | 8294 ft | 153 kts | 73° |
| 2026-04-30 14:48 | 51.71780 | -1.70852 | 8172 ft | 157 kts | 74° |
| 2026-04-30 14:48 | 51.72239 | -1.69252 | 8167 ft | 157 kts | 73° |
| 2026-04-30 14:49 | 51.72694 | -1.67681 | 8073 ft | 156 kts | 73° |
| 2026-04-30 14:49 | 51.73147 | -1.66119 | 7882 ft | 155 kts | 73° |
| 2026-04-30 14:49 | 51.73607 | -1.64527 | 7681 ft | 154 kts | 73° |
| 2026-04-30 14:49 | 51.74047 | -1.62985 | 7488 ft | 153 kts | 73° |
| 2026-04-30 14:50 | 51.75017 | -1.59903 | 7101 ft | 154 kts | 71° |
| 2026-04-30 14:50 | 51.75504 | -1.58376 | 6912 ft | 152 kts | 71° |
| 2026-04-30 14:51 | 51.76455 | -1.55329 | 6512 ft | 152 kts | 71° |
| 2026-04-30 14:51 | 51.76947 | -1.53819 | 6319 ft | 152 kts | 71° |
| 2026-04-30 14:51 | 51.77907 | -1.50828 | 5909 ft | 148 kts | 71° |
| 2026-04-30 14:52 | 51.78369 | -1.49368 | 5708 ft | 142 kts | 72° |
| 2026-04-30 14:52 | 51.79284 | -1.46658 | 5309 ft | 133 kts | 74° |
| 2026-04-30 14:52 | 51.79681 | -1.45305 | 5095 ft | 130 kts | 76° |
| 2026-04-30 14:53 | 51.80441 | -1.42702 | 4689 ft | 129 kts | 76° |
| 2026-04-30 14:53 | 51.80818 | -1.41386 | 4481 ft | 129 kts | 76° |
| 2026-04-30 14:54 | 51.81532 | -1.38739 | 4076 ft | 128 kts | 76° |
| 2026-04-30 14:54 | 51.82199 | -1.36139 | 3969 ft | 125 kts | 75° |
| 2026-04-30 14:55 | 51.82890 | -1.33568 | 3971 ft | 123 kts | 75° |
| 2026-04-30 14:55 | 51.83246 | -1.32331 | 3993 ft | 121 kts | 76° |
| 2026-04-30 14:55 | 51.83623 | -1.29870 | 4063 ft | 106 kts | 116° |
| 2026-04-30 14:56 | 51.82619 | -1.28187 | 4057 ft | 110 kts | 151° |
| 2026-04-30 14:56 | 51.81283 | -1.27064 | 4021 ft | 107 kts | 144° |
| 2026-04-30 14:57 | 51.80692 | -1.26335 | 4025 ft | 108 kts | 136° |
| 2026-04-30 14:57 | 51.79730 | -1.24503 | 4037 ft | 111 kts | 133° |
| 2026-04-30 14:58 | 51.78449 | -1.23354 | 4064 ft | 120 kts | 186° |
| 2026-04-30 14:58 | 51.77771 | -1.24218 | 4016 ft | 139 kts | 232° |
| 2026-04-30 14:58 | 51.78237 | -1.27250 | 3992 ft | 155 kts | 312° |
| 2026-04-30 14:59 | 51.79862 | -1.29460 | 3946 ft | 154 kts | 339° |
| 2026-04-30 15:00 | 51.82724 | -1.31556 | 3988 ft | 151 kts | 337° |
| 2026-04-30 15:00 | 51.84711 | -1.32221 | 4011 ft | 144 kts | 6° |
| 2026-04-30 15:01 | 51.86717 | -1.32287 | 3623 ft | 145 kts | 6° |
| 2026-04-30 15:01 | 51.87387 | -1.32310 | 3483 ft | 146 kts | 6° |
| 2026-04-30 15:01 | 51.89767 | -1.32373 | 2878 ft | 144 kts | 8° |
| 2026-04-30 15:02 | 51.90756 | -1.32409 | 2711 ft | 142 kts | 5° |
| 2026-04-30 15:02 | 51.91739 | -1.32463 | 2534 ft | 141 kts | 10° |
| 2026-04-30 15:03 | 51.94698 | -1.32421 | 1871 ft | 139 kts | 11° |
| 2026-04-30 15:03 | 51.96254 | -1.31553 | 1842 ft | 110 kts | 73° |
| 2026-04-30 15:04 | 51.95634 | -1.29517 | 1813 ft | 122 kts | 148° |
| 2026-04-30 15:04 | 51.93094 | -1.29323 | 1806 ft | 131 kts | 182° |
| 2026-04-30 15:05 | 51.90791 | -1.29919 | 1558 ft | 95 kts | 178° |
| 2026-04-30 15:06 | 51.89495 | -1.30278 | 1338 ft | 93 kts | 178° |
| 2026-04-30 15:06 | 51.88208 | -1.30660 | 1087 ft | 95 kts | 180° |
| 2026-04-30 15:07 | 51.86905 | -1.31032 | 807 ft | 95 kts | 176° |
| 2026-04-30 15:07 | 51.85536 | -1.31433 | 588 ft | 101 kts | 179° |
| 2026-04-30 15:08 | 51.84153 | -1.31885 | 1075 ft | 108 kts | 181° |
| 2026-04-30 15:08 | 51.82589 | -1.33963 | 2154 ft | 131 kts | 276° |
| 2026-04-30 15:09 | 51.83725 | -1.36230 | 2520 ft | 136 kts | 333° |
| 2026-04-30 15:09 | 51.85160 | -1.37842 | 2937 ft | 114 kts | 332° |
| 2026-04-30 15:10 | 51.86406 | -1.39373 | 3056 ft | 114 kts | 334° |
| 2026-04-30 15:11 | 51.88921 | -1.42367 | 3546 ft | 118 kts | 330° |
| 2026-04-30 15:11 | 51.90348 | -1.43916 | 3960 ft | 134 kts | 329° |
| 2026-04-30 15:12 | 51.93194 | -1.46605 | 4027 ft | 177 kts | 335° |
| 2026-04-30 15:13 | 51.95422 | -1.48489 | 3995 ft | 182 kts | 332° |
| 2026-04-30 15:14 | 51.99084 | -1.53980 | 3992 ft | 182 kts | 308° |
| 2026-04-30 15:14 | 52.01305 | -1.58995 | 3990 ft | 182 kts | 304° |
| 2026-04-30 15:16 | 52.04902 | -1.67312 | 4019 ft | 176 kts | 304° |
| 2026-04-30 15:17 | 52.06282 | -1.74588 | 4011 ft | 169 kts | 274° |
| 2026-04-30 15:18 | 52.07086 | -1.83432 | 3984 ft | 121 kts | 271° |
| 2026-04-30 15:19 | 52.06374 | -1.85610 | 4019 ft | 67 kts | 155° |